CheckWX is a tool to help pilots better visualize weather data.  It is not intended as a substitute for an official pre-flight weather briefing.

20:41:11 UTC

CYCP METAR
Blue River Airport
Blue River, Canada
Current

41 mins ago

CYCP 232000Z 00000KT 15SM SCT065TCU BKN110 14/01 A2996 RMK TCU4AC1 SLP163 DENSITY ALT 2600FT
Observed
Apr-23 @ 20:00 UTC
Visibility
15 SM
Flight Rules
VFR
Cloud Levels
  • Scattered at 6,500' AGL
  • Broken at 11,000' AGL
Temperature
14°C / 57°F
Dewpoint
C / 34°F
Humidity
41%
Altimeter
29.96" Hg
Pressure
1014.52 hPa
Previous

2 hours ago

CYCP 231900Z 03005KT 340V080 15SM SCT065TCU BKN110 12/04 A2997 RMK TCU3AC2 SLP168 DENSITY ALT 2400FT
Observed
Apr-23 @ 19:00 UTC
Wind
  • 030° at 5 KTS
Visibility
15 SM
Flight Rules
VFR
Cloud Levels
  • Scattered at 6,500' AGL
  • Broken at 11,000' AGL
Temperature
12°C / 54°F
Dewpoint
C / 39°F
Humidity
58%
Altimeter
29.97" Hg
Pressure
1014.92 hPa
Previous

3 hours ago

CYCP 231800Z VRB02KT 15SM SCT065TCU BKN110 10/06 A2998 RMK TCU4AC1 SLP173
Observed
Apr-23 @ 18:00 UTC
Wind
  • Variable at 2 KTS
Visibility
15 SM
Flight Rules
VFR
Cloud Levels
  • Scattered at 6,500' AGL
  • Broken at 11,000' AGL
Temperature
10°C / 50°F
Dewpoint
C / 43°F
Humidity
76%
Altimeter
29.98" Hg
Pressure
1015.22 hPa